createdAt,value
2022-08-25T00:04:55.444Z,7.80
2022-08-25T00:10:20.424Z,8.80
2022-08-25T00:15:44.094Z,9.60
2022-08-25T00:21:10.243Z,8.18
2022-08-25T00:26:33.933Z,7.40
2022-08-25T00:31:58.363Z,7.82
2022-08-25T00:37:23.367Z,6.35
2022-08-25T00:42:47.012Z,6.10
2022-08-25T00:48:10.970Z,5.95
2022-08-25T00:53:35.978Z,7.68
2022-08-25T00:59:01.192Z,8.48
2022-08-25T01:04:25.499Z,8.75
2022-08-25T01:09:53.935Z,9.40
2022-08-25T01:15:18.397Z,7.93
2022-08-25T01:20:43.010Z,7.70
2022-08-25T01:26:12.062Z,6.70
2022-08-25T01:31:37.995Z,7.38
2022-08-25T01:37:02.200Z,7.72
2022-08-25T01:42:38.766Z,8.77
2022-08-25T01:48:02.907Z,8.57
2022-08-25T01:53:29.271Z,9.27
2022-08-25T01:58:57.306Z,8.10
2022-08-25T02:04:21.829Z,6.88
2022-08-25T02:09:45.522Z,8.38
2022-08-25T02:15:11.879Z,7.95
2022-08-25T02:20:35.535Z,7.68
2022-08-25T02:25:59.218Z,7.00
2022-08-25T02:31:25.430Z,7.25
2022-08-25T02:36:49.036Z,7.13
2022-08-25T02:42:12.663Z,7.53
2022-08-25T02:47:37.979Z,7.93
2022-08-25T02:53:01.590Z,8.90
2022-08-25T02:58:25.886Z,9.40
2022-08-25T03:03:52.629Z,7.95
2022-08-25T03:09:16.834Z,8.30
2022-08-25T03:14:41.528Z,7.22
2022-08-25T03:20:09.239Z,9.07
2022-08-25T03:25:50.609Z,8.75
2022-08-25T03:31:14.250Z,9.27
2022-08-25T03:36:39.610Z,7.95
2022-08-25T03:42:04.258Z,6.95
2022-08-25T03:47:29.449Z,7.70
2022-08-25T03:52:56.650Z,9.02
2022-08-25T03:58:20.234Z,9.43
2022-08-25T04:03:43.979Z,8.93
2022-08-25T04:09:09.436Z,8.55
2022-08-25T04:14:33.071Z,9.10
2022-08-25T04:19:57.339Z,8.63
2022-08-25T04:25:22.405Z,10.10
2022-08-25T04:30:50.260Z,9.88
2022-08-25T04:36:17.639Z,9.35
2022-08-25T04:41:42.675Z,10.57
2022-08-25T04:47:06.676Z,11.38
2022-08-25T04:52:30.442Z,11.68
2022-08-25T04:57:55.596Z,10.50
2022-08-25T05:03:19.182Z,11.82
2022-08-25T05:08:42.822Z,14.35
2022-08-25T05:14:12.975Z,15.02
2022-08-25T05:19:37.237Z,14.77
2022-08-25T05:25:00.956Z,13.52
2022-08-25T05:30:26.006Z,13.15
2022-08-25T05:35:49.627Z,12.10
2022-08-25T05:41:16.580Z,12.55
2022-08-25T05:46:41.642Z,12.98
2022-08-25T05:52:05.567Z,13.68
2022-08-25T05:57:29.188Z,14.75
2022-08-25T06:02:54.179Z,13.98
2022-08-25T06:08:17.824Z,12.07
2022-08-25T06:13:42.134Z,11.98
2022-08-25T06:19:08.358Z,12.48
2022-08-25T06:24:31.962Z,11.93
2022-08-25T06:29:56.155Z,9.30
2022-08-25T06:35:25.477Z,8.75
2022-08-25T06:40:49.489Z,9.32
2022-08-25T06:46:15.183Z,7.72
2022-08-25T06:51:41.892Z,6.82
2022-08-25T06:57:06.795Z,7.50
2022-08-25T07:02:30.596Z,6.10
2022-08-25T07:08:00.276Z,5.88
2022-08-25T07:13:23.901Z,6.38
2022-08-25T07:18:48.823Z,6.32
2022-08-25T07:24:15.340Z,6.25
2022-08-25T07:29:42.258Z,5.97
2022-08-25T07:35:18.819Z,6.05
2022-08-25T07:40:44.749Z,5.88
2022-08-25T07:46:17.161Z,6.22
2022-08-25T07:51:40.972Z,5.10
2022-08-25T07:57:27.007Z,4.50
2022-08-25T08:02:50.668Z,4.10
2022-08-25T08:08:14.745Z,3.63
2022-08-25T08:13:41.541Z,3.08
2022-08-25T08:19:06.095Z,3.05
2022-08-25T08:24:44.430Z,3.55
2022-08-25T08:30:16.232Z,3.08
2022-08-25T08:35:39.927Z,3.42
2022-08-25T08:42:00.678Z,3.45
2022-08-25T08:47:33.095Z,4.25
2022-08-25T08:53:02.600Z,3.00
2022-08-25T08:58:40.352Z,3.35
2022-08-25T09:04:14.645Z,2.85
2022-08-25T09:09:41.345Z,3.30
2022-08-25T09:15:14.117Z,2.95
2022-08-25T09:20:49.820Z,3.00
2022-08-25T09:26:27.374Z,2.83
2022-08-25T09:31:51.277Z,3.45
2022-08-25T09:37:16.592Z,2.88
2022-08-25T09:42:57.671Z,2.67
2022-08-25T09:48:26.238Z,2.50
2022-08-25T09:53:56.724Z,2.85
2022-08-25T09:59:34.670Z,2.67
2022-08-25T10:10:32.392Z,2.92
2022-08-25T10:16:19.978Z,3.10
2022-08-25T10:22:05.496Z,2.67
2022-08-25T10:27:39.498Z,2.35
2022-08-25T10:33:18.977Z,3.00
2022-08-25T10:38:46.315Z,2.80
2022-08-25T10:49:57.882Z,2.53
2022-08-25T10:55:26.951Z,2.80
2022-08-25T11:00:59.528Z,2.70
2022-08-25T11:06:29.231Z,2.75
2022-08-25T11:11:59.151Z,3.00
2022-08-25T11:17:27.748Z,3.05
2022-08-25T11:22:56.111Z,2.47
2022-08-25T11:28:27.923Z,2.80
2022-08-25T11:33:54.842Z,2.65
2022-08-25T11:39:34.634Z,2.70
2022-08-25T11:45:07.746Z,2.83
2022-08-25T11:50:35.456Z,2.83
2022-08-25T11:56:05.601Z,2.55
2022-08-25T12:02:08.797Z,3.55
2022-08-25T12:08:18.242Z,2.92
2022-08-25T12:13:48.240Z,3.25
2022-08-25T12:19:49.294Z,2.60
2022-08-25T12:25:36.508Z,3.25
2022-08-25T12:31:05.199Z,3.27
2022-08-25T12:36:31.814Z,2.63
2022-08-25T12:47:33.923Z,3.00
2022-08-25T12:53:08.512Z,2.92
2022-08-25T12:59:00.345Z,2.90
2022-08-25T13:04:59.004Z,3.08
2022-08-25T13:10:30.670Z,2.75
2022-08-25T13:16:08.902Z,2.88
2022-08-25T13:27:01.892Z,2.80
2022-08-25T13:32:32.168Z,3.20
2022-08-25T13:38:13.553Z,2.80
2022-08-25T13:43:38.229Z,2.92
2022-08-25T13:49:08.913Z,2.95
2022-08-25T13:54:40.522Z,2.83
2022-08-25T14:00:09.351Z,2.80
2022-08-25T14:05:38.559Z,3.08
2022-08-25T14:11:14.659Z,2.92
2022-08-25T14:16:43.495Z,3.70
2022-08-25T14:22:08.705Z,2.97
2022-08-25T14:27:38.728Z,3.30
2022-08-25T14:33:06.958Z,3.50
2022-08-25T14:38:32.433Z,3.30
2022-08-25T14:43:56.043Z,2.75
2022-08-25T14:49:24.899Z,3.10
2022-08-25T15:00:14.183Z,2.78
2022-08-25T15:05:41.575Z,3.55
2022-08-25T15:11:08.809Z,2.60
2022-08-25T15:16:35.877Z,3.10
2022-08-25T15:21:59.746Z,2.83
2022-08-25T15:27:24.939Z,3.15
2022-08-25T15:32:54.571Z,2.67
2022-08-25T15:38:20.698Z,3.00
2022-08-25T15:43:45.727Z,3.13
2022-08-25T15:49:10.385Z,3.08
2022-08-25T15:54:34.762Z,3.13
2022-08-25T16:00:01.412Z,3.30
2022-08-25T16:10:51.449Z,3.20
2022-08-25T16:16:17.300Z,3.13
2022-08-25T16:21:42.157Z,3.35
2022-08-25T16:27:12.095Z,2.42
2022-08-25T16:32:37.271Z,3.45
2022-08-25T16:38:03.858Z,2.67
2022-08-25T16:43:28.018Z,3.03
2022-08-25T16:48:53.151Z,3.53
2022-08-25T16:54:30.678Z,3.08
2022-08-25T16:59:54.315Z,2.78
2022-08-25T17:05:20.055Z,2.78
2022-08-25T17:10:44.464Z,3.25
2022-08-25T17:16:08.824Z,3.15
2022-08-25T17:21:36.958Z,2.97
2022-08-25T17:27:01.533Z,3.17
2022-08-25T17:32:30.355Z,2.63
2022-08-25T17:37:55.895Z,3.15
2022-08-25T17:43:20.151Z,2.97
2022-08-25T17:48:44.891Z,4.00
2022-08-25T17:54:11.101Z,3.30
2022-08-25T17:59:34.810Z,3.22
2022-08-25T18:04:58.528Z,3.60
2022-08-25T18:10:25.269Z,3.63
2022-08-25T18:15:48.960Z,3.78
2022-08-25T18:21:14.220Z,3.22
2022-08-25T18:26:39.385Z,3.33
2022-08-25T18:32:03.568Z,3.38
2022-08-25T18:37:45.644Z,3.55
2022-08-25T18:43:12.892Z,3.60
2022-08-25T18:48:36.556Z,3.40
2022-08-25T18:54:01.454Z,3.58
2022-08-25T18:59:26.523Z,3.60
2022-08-25T19:04:52.103Z,3.83
2022-08-25T19:10:17.375Z,3.78
2022-08-25T19:15:45.736Z,3.85
2022-08-25T19:21:09.684Z,4.43
2022-08-25T19:26:35.820Z,4.43
2022-08-25T19:32:01.995Z,4.80
2022-08-25T19:37:29.127Z,4.75
2022-08-25T19:42:53.906Z,4.30
2022-08-25T19:48:19.791Z,5.47
2022-08-25T19:53:45.143Z,4.72
2022-08-25T19:59:09.173Z,4.85
2022-08-25T20:04:34.309Z,4.85
2022-08-25T20:10:00.960Z,4.72
2022-08-25T20:15:24.599Z,4.85
2022-08-25T20:20:50.332Z,5.22
2022-08-25T20:26:13.967Z,4.70
2022-08-25T20:31:37.855Z,4.53
2022-08-25T20:37:04.587Z,5.00
2022-08-25T20:42:30.564Z,5.15
2022-08-25T20:47:54.634Z,4.70
2022-08-25T20:53:19.631Z,5.45
2022-08-25T20:58:49.095Z,4.57
2022-08-25T21:04:15.428Z,5.20
2022-08-25T21:09:40.459Z,4.97
2022-08-25T21:15:04.931Z,4.57
2022-08-25T21:20:30.728Z,5.03
2022-08-25T21:25:56.352Z,4.78
2022-08-25T21:31:21.889Z,3.92
2022-08-25T21:36:46.605Z,4.78
2022-08-25T21:47:42.593Z,4.10
2022-08-25T21:53:07.018Z,5.50
2022-08-25T21:58:33.693Z,4.95
2022-08-25T22:03:57.531Z,4.45
2022-08-25T22:09:21.197Z,4.57
2022-08-25T22:14:46.494Z,5.28
2022-08-25T22:20:11.458Z,5.60
2022-08-25T22:25:35.123Z,5.35
2022-08-25T22:31:06.745Z,4.28
2022-08-25T22:36:34.313Z,5.38
2022-08-25T22:41:58.220Z,5.03
2022-08-25T22:47:23.375Z,5.20
2022-08-25T22:52:48.630Z,5.30
2022-08-25T22:58:14.615Z,5.18
2022-08-25T23:03:39.707Z,5.88
2022-08-25T23:09:10.444Z,5.95
2022-08-25T23:14:35.580Z,5.50
2022-08-25T23:20:20.555Z,4.85
2022-08-25T23:25:45.014Z,5.53
2022-08-25T23:31:09.316Z,5.63
2022-08-25T23:36:36.811Z,4.70
2022-08-25T23:42:00.500Z,5.10
2022-08-25T23:47:24.132Z,5.30
2022-08-25T23:52:49.068Z,4.97
2022-08-25T23:58:13.030Z,4.88
